Terminal Aerodrome Forecast
Issued by NWS Charleston, WV

Home | Current Version | Previous Version | Text Only | Print | Product List | Glossary On
Versions: 1 2 3 4 5 6 7 8 9 10 11 12 13 14 15 16 17 18 19 20 21
910
FTUS41 KRLX 071720
TAFCRW
TAF
KCRW 071720Z 0718/0818 24004KT P6SM SCT250
     FM080700 19004KT P6SM BKN040
     FM081300 19005KT 2SM -SHSN BR OVC025
     FM081600 23006KT 3SM -SHRASN BR OVC015
     FM081700 23007KT 6SM -SHRA BR OVC015=

USA.gov is the U.S. government's official web portal to all federal, state and local government web resources and services.